Fulton, Pennsylvania
Current Conditions -  °F | °C
As of 5:55 PM on Thursday 23 Oct 2014 (Local Time) from KMQS Reporting Station
Overcast Overcast  
Wind Chill: 54°   Ceiling: 2600
Heat Index: 54°   Visibility: 10mi
Dew Point: 45°   Wind: 16mph
Humidity: 72%   Direction: 340°NNW
Pressure: 29.83"   Gusts: 29mph
Location:  39.7675°N, 76.1818°W
Report Text: KMQS 232155Z AUTO 34014G25KT 10SM SCT019 BKN026 OVC070 12/07 A2983 RMK AO2
Loading
Personal Weather Stations






























Interactive Weather Map
Tropical Storm Tracking
New forecast layout! Learn more

10-Day Weather Forecast

Advertisements
Track Severe Weather on mobile